Time;durP1;ratioP1;P1;durP2;ratioP2;P2;SDS_P1;SDS_P2;PMS_P1;PMS_P2;Temp;Humidity;BMP_temperature;BMP_pressure;BME280_temperature;BME280_humidity;BME280_pressure;Samples;Min_cycle;Max_cycle;Signal;HPM_P1;HPM_P2
2023/05/06 00:00:38;;;;;;;2.17;1.30;;;18.40;96.70;;;;;;5115278;27;20048;-73
2023/05/06 00:03:06;;;;;;;2.85;1.48;;;18.30;96.70;;;;;;5096701;27;20039;-73
2023/05/06 00:05:35;;;;;;;2.30;1.25;;;18.30;96.70;;;;;;5115015;27;20063;-74
2023/05/06 00:08:05;;;;;;;2.30;1.50;;;18.30;96.70;;;;;;5116135;27;20047;-74
2023/05/06 00:10:33;;;;;;;4.07;1.45;;;18.20;96.70;;;;;;5093935;27;20416;-73
2023/05/06 00:13:02;;;;;;;2.72;1.42;;;18.20;96.70;;;;;;5113658;27;20044;-74
2023/05/06 00:57:50;;;;;;;2.92;1.70;;;17.70;96.70;;;;;;5114866;27;20099;-73
2023/05/06 01:00:20;;;;;;;2.70;1.75;;;17.50;96.70;;;;;;5094649;27;20047;-74
2023/05/06 01:02:49;;;;;;;2.88;1.70;;;17.60;96.70;;;;;;5100654;27;20074;-73
2023/05/06 01:05:20;;;;;;;2.50;1.50;;;17.60;96.70;;;;;;5094043;27;20496;-74
2023/05/06 01:07:59;;;;;;;3.22;1.58;;;17.60;96.70;;;;;;5100111;27;20062;-74
2023/05/06 01:10:35;;;;;;;2.70;1.65;;;17.40;96.70;;;;;;5115117;27;20095;-73
2023/05/06 01:13:15;;;;;;;2.63;1.77;;;17.40;96.70;;;;;;5108304;27;20123;-73
2023/05/06 01:15:45;;;;;;;2.05;1.50;;;17.30;96.70;;;;;;5096013;27;20688;-74
2023/05/06 01:18:16;;;;;;;2.47;1.80;;;17.40;96.70;;;;;;5086246;27;20039;-73
2023/05/06 01:20:48;;;;;;;2.70;1.50;;;17.40;96.70;;;;;;5110671;27;20046;-73
2023/05/06 01:40:13;;;;;;;3.30;1.35;;;17.20;96.70;;;;;;5112677;27;20056;-73
2023/05/06 01:42:50;;;;;;;1.20;1.10;;;17.30;96.70;;;;;;5096940;27;20041;-73
2023/05/06 01:45:22;;;;;;;1.88;1.30;;;17.30;96.70;;;;;;5114161;27;20043;-73
2023/05/06 01:47:52;;;;;;;2.08;1.10;;;17.40;96.70;;;;;;5095026;27;20051;-73
2023/05/06 01:50:21;;;;;;;4.03;1.63;;;17.40;96.70;;;;;;5097065;27;20047;-74
2023/05/06 01:52:59;;;;;;;1.85;1.27;;;17.50;96.70;;;;;;5089379;27;20047;-73
2023/05/06 01:55:29;;;;;;;2.03;1.35;;;17.50;96.70;;;;;;5091570;27;20494;-73
2023/05/06 01:57:58;;;;;;;2.22;1.20;;;17.40;96.70;;;;;;5110277;27;20047;-73
2023/05/06 02:00:26;;;;;;;1.73;1.25;;;17.40;96.70;;;;;;5114099;27;20511;-73
2023/05/06 02:02:55;;;;;;;4.22;1.38;;;17.20;96.70;;;;;;5097493;28;20703;-73
2023/05/06 02:05:25;;;;;;;3.08;1.33;;;17.30;96.70;;;;;;5091127;28;20409;-73
2023/05/06 02:07:56;;;;;;;1.10;1.00;;;17.30;96.70;;;;;;5093955;27;20055;-75
2023/05/06 02:10:25;;;;;;;2.58;1.50;;;17.20;96.70;;;;;;5094505;27;20505;-73
2023/05/06 02:13:02;;;;;;;3.70;1.35;;;17.10;96.70;;;;;;5080225;27;20071;-73
2023/05/06 02:15:31;;;;;;;2.10;1.27;;;17.10;96.70;;;;;;5092019;27;20047;-73
2023/05/06 02:18:00;;;;;;;3.28;1.75;;;17.10;96.70;;;;;;5090438;27;20150;-73
2023/05/06 02:20:29;;;;;;;3.03;1.50;;;17.20;96.70;;;;;;5088798;27;20573;-73
2023/05/06 02:22:58;;;;;;;3.33;1.48;;;17.20;96.70;;;;;;5108452;27;20044;-74
2023/05/06 02:25:26;;;;;;;2.63;1.50;;;17.20;96.70;;;;;;5110682;27;20127;-73
2023/05/06 02:27:55;;;;;;;2.83;1.23;;;17.20;96.70;;;;;;5091269;27;20039;-74
2023/05/06 03:13:19;;;;;;;1.95;1.30;;;16.40;96.70;;;;;;5079954;28;20047;-73
2023/05/06 03:15:53;;;;;;;2.30;1.20;;;16.30;96.70;;;;;;5070071;28;20060;-73
2023/05/06 03:18:22;;;;;;;2.70;1.35;;;16.50;96.70;;;;;;5077273;28;20458;-73
2023/05/06 03:20:51;;;;;;;1.70;1.10;;;16.50;96.70;;;;;;5081545;28;20398;-74
2023/05/06 03:23:20;;;;;;;2.28;1.20;;;16.50;96.70;;;;;;5067111;28;20052;-73
2023/05/06 03:25:50;;;;;;;2.40;1.13;;;16.40;96.70;;;;;;5079610;28;20072;-73
2023/05/06 03:28:20;;;;;;;1.55;1.20;;;16.20;96.70;;;;;;5060993;28;20048;-73
2023/05/06 03:30:52;;;;;;;1.95;1.38;;;16.40;96.70;;;;;;5066501;28;20056;-73
2023/05/06 03:33:22;;;;;;;3.80;1.63;;;16.30;96.70;;;;;;5075042;28;20120;-73
2023/05/06 03:35:52;;;;;;;2.80;1.30;;;16.20;96.70;;;;;;5068971;28;20062;-73
2023/05/06 03:38:21;;;;;;;1.92;1.00;;;16.40;96.70;;;;;;5074376;28;20414;-73
2023/05/06 03:40:57;;;;;;;;;;;16.40;96.70;;;;;;5071238;28;20075;-73
2023/05/06 03:43:32;;;;;;;2.17;1.23;;;16.20;96.70;;;;;;5074193;28;20022;-73
2023/05/06 03:46:23;;;;;;;1.67;1.05;;;16.10;96.70;;;;;;5078773;28;20089;-73
2023/05/06 03:49:02;;;;;;;1.75;1.30;;;15.90;96.70;;;;;;5078711;28;20584;-73
2023/05/06 03:51:57;;;;;;;1.88;1.30;;;16.10;96.70;;;;;;5076333;28;21351;-73
2023/05/06 03:54:46;;;;;;;;;;;16.30;96.70;;;;;;5071024;28;20059;-73
2023/05/06 03:57:18;;;;;;;2.38;1.40;;;16.20;96.70;;;;;;5075209;28;20488;-73
2023/05/06 03:59:47;;;;;;;3.00;1.15;;;16.10;96.70;;;;;;5079865;28;20389;-73
2023/05/06 04:02:17;;;;;;;3.10;1.33;;;16.00;96.70;;;;;;5079293;28;20071;-73
2023/05/06 04:04:46;;;;;;;2.83;1.23;;;16.10;96.70;;;;;;5070784;28;20046;-73
2023/05/06 04:07:15;;;;;;;2.65;1.30;;;16.10;96.70;;;;;;5074737;28;20505;-73
2023/05/06 04:09:45;;;;;;;1.60;1.20;;;16.00;96.70;;;;;;5077110;28;20124;-73
2023/05/06 04:12:14;;;;;;;1.95;1.02;;;16.10;96.70;;;;;;5057283;28;20044;-73
2023/05/06 04:14:43;;;;;;;1.38;1.10;;;16.10;96.70;;;;;;5077648;28;20056;-73
2023/05/06 04:17:12;;;;;;;2.03;1.50;;;16.00;96.70;;;;;;5084386;28;20047;-73
2023/05/06 04:19:44;;;;;;;2.88;1.40;;;16.00;96.70;;;;;;5083577;28;20060;-73
2023/05/06 04:22:14;;;;;;;2.30;1.20;;;16.30;96.70;;;;;;5088160;28;20131;-73
2023/05/06 04:24:46;;;;;;;1.83;1.10;;;16.30;96.70;;;;;;5071089;28;20725;-74
2023/05/06 04:27:17;;;;;;;2.78;1.20;;;16.40;96.70;;;;;;5084814;28;20467;-73
2023/05/06 04:29:46;;;;;;;2.20;1.17;;;16.50;96.70;;;;;;5085895;28;20055;-73
2023/05/06 04:32:16;;;;;;;2.63;0.95;;;16.50;96.70;;;;;;5067207;28;20097;-72
2023/05/06 04:34:47;;;;;;;2.20;0.80;;;16.60;96.70;;;;;;5085714;28;20035;-72
2023/05/06 04:37:17;;;;;;;1.38;1.00;;;16.50;96.70;;;;;;5083955;28;20051;-72
2023/05/06 04:39:50;;;;;;;4.63;1.13;;;16.60;96.70;;;;;;5084750;28;20044;-72
2023/05/06 04:42:20;;;;;;;1.48;1.00;;;16.60;96.70;;;;;;5085081;28;20623;-72
2023/05/06 04:49:14;;;;;;;1.08;0.80;;;16.50;96.70;;;;;;5069056;28;20116;-72
2023/05/06 04:51:45;;;;;;;1.67;0.90;;;16.50;96.70;;;;;;5060683;28;20443;-74
2023/05/06 04:54:15;;;;;;;1.58;0.73;;;16.60;96.70;;;;;;5065014;28;20055;-73
2023/05/06 04:56:43;;;;;;;3.33;0.82;;;16.70;96.70;;;;;;5064542;28;20118;-73
2023/05/06 04:59:14;;;;;;;2.30;0.95;;;16.60;96.70;;;;;;5075005;28;20063;-73
2023/05/06 05:01:44;;;;;;;1.65;1.13;;;16.70;96.70;;;;;;5045403;28;20228;-73
2023/05/06 05:04:13;;;;;;;1.77;1.27;;;16.70;96.70;;;;;;5064908;28;20044;-74
2023/05/06 05:06:42;;;;;;;2.65;1.20;;;16.60;96.70;;;;;;5064935;28;20071;-73
2023/05/06 05:09:13;;;;;;;1.33;1.23;;;16.60;96.70;;;;;;5063957;28;20044;-73
2023/05/06 05:11:44;;;;;;;2.78;1.45;;;16.50;96.70;;;;;;5065089;28;20044;-73
2023/05/06 05:14:13;;;;;;;1.63;1.10;;;16.50;96.70;;;;;;5055004;28;20054;-73
2023/05/06 05:16:41;;;;;;;1.48;1.20;;;16.60;96.70;;;;;;5083015;28;20077;-73
2023/05/06 05:19:10;;;;;;;1.95;1.20;;;16.70;96.70;;;;;;5085399;28;20489;-73
2023/05/06 05:21:39;;;;;;;2.35;1.13;;;16.90;96.70;;;;;;5074673;28;20390;-73
2023/05/06 05:24:10;;;;;;;2.83;1.42;;;16.90;96.70;;;;;;5063927;28;20370;-73
2023/05/06 05:26:40;;;;;;;1.40;1.20;;;16.80;96.70;;;;;;5081383;28;20070;-73
2023/05/06 05:29:09;;;;;;;2.63;1.65;;;16.90;96.70;;;;;;5078002;28;20048;-73
2023/05/06 05:31:37;;;;;;;1.80;1.30;;;16.90;96.70;;;;;;5082013;28;20569;-73
2023/05/06 05:34:06;;;;;;;2.13;1.35;;;16.80;96.70;;;;;;5065830;28;20050;-73
2023/05/06 05:36:35;;;;;;;2.50;1.60;;;16.80;96.70;;;;;;5082658;28;20155;-73
2023/05/06 05:39:07;;;;;;;2.85;1.27;;;16.80;96.70;;;;;;5079398;28;20048;-74
2023/05/06 05:41:42;;;;;;;2.15;1.40;;;16.70;96.70;;;;;;5081593;28;20040;-74
2023/05/06 05:44:11;;;;;;;3.35;1.63;;;16.70;96.70;;;;;;5083228;28;20051;-73
2023/05/06 05:46:41;;;;;;;3.03;1.30;;;16.90;96.70;;;;;;5073032;28;20913;-74
2023/05/06 05:49:13;;;;;;;3.90;1.55;;;17.00;96.70;;;;;;5071290;28;20403;-74
2023/05/06 05:51:42;;;;;;;1.33;1.15;;;17.00;96.70;;;;;;5076507;28;20044;-73
2023/05/06 05:54:13;;;;;;;4.32;1.67;;;17.10;96.70;;;;;;5082040;28;20043;-72
2023/05/06 05:56:44;;;;;;;3.08;1.40;;;17.20;96.70;;;;;;5070992;28;20032;-73
2023/05/06 05:59:14;;;;;;;4.10;1.60;;;17.30;96.70;;;;;;5073799;28;20465;-73
2023/05/06 06:01:44;;;;;;;2.38;1.77;;;17.40;96.70;;;;;;5081670;28;20055;-74
2023/05/06 06:04:14;;;;;;;1.58;1.45;;;17.40;96.70;;;;;;5073777;28;20052;-74
2023/05/06 06:06:43;;;;;;;2.58;1.90;;;17.40;96.70;;;;;;5074997;28;20050;-72
2023/05/06 06:09:16;;;;;;;4.38;1.92;;;17.40;96.70;;;;;;5056433;28;20054;-73
2023/05/06 06:11:46;;;;;;;3.92;1.73;;;17.40;96.70;;;;;;5073809;28;20136;-73
2023/05/06 06:14:16;;;;;;;7.43;2.42;;;17.50;96.70;;;;;;5083248;28;20051;-72
2023/05/06 06:16:45;;;;;;;4.47;1.58;;;17.50;96.70;;;;;;5086234;28;20104;-72
2023/05/06 06:19:14;;;;;;;3.22;1.75;;;17.50;96.70;;;;;;5076249;28;20059;-73
2023/05/06 06:21:43;;;;;;;4.50;1.63;;;17.50;96.70;;;;;;5100077;28;20065;-73
2023/05/06 06:24:12;;;;;;;1.90;1.63;;;17.60;96.70;;;;;;5092972;28;20035;-73
2023/05/06 06:26:40;;;;;;;4.05;2.00;;;17.70;96.70;;;;;;5072956;28;20048;-73
2023/05/06 06:29:11;;;;;;;2.20;1.85;;;17.70;96.70;;;;;;5096374;28;20052;-75
2023/05/06 06:31:39;;;;;;;2.40;1.98;;;17.70;96.70;;;;;;5101036;28;20109;-74
2023/05/06 06:34:08;;;;;;;2.95;2.40;;;17.70;96.70;;;;;;5100745;28;20054;-73
2023/05/06 06:36:39;;;;;;;3.88;2.75;;;17.70;96.70;;;;;;5102275;28;20048;-74
2023/05/06 06:39:07;;;;;;;4.35;3.42;;;17.60;96.70;;;;;;5088904;28;20075;-75
2023/05/06 06:41:35;;;;;;;4.10;3.50;;;17.70;96.70;;;;;;5087836;28;20115;-74
2023/05/06 06:44:04;;;;;;;5.93;4.55;;;17.70;96.70;;;;;;5092284;28;20043;-75
2023/05/06 06:46:34;;;;;;;6.15;4.72;;;17.80;96.70;;;;;;5101399;28;20043;-74
2023/05/06 06:49:02;;;;;;;7.40;6.07;;;17.80;96.70;;;;;;5101001;28;20057;-74
2023/05/06 06:51:31;;;;;;;7.47;5.45;;;17.70;96.70;;;;;;5084269;28;20596;-74
2023/05/06 06:54:00;;;;;;;6.55;5.47;;;17.70;96.70;;;;;;5099426;28;20097;-75
2023/05/06 06:56:28;;;;;;;6.78;5.32;;;17.80;96.70;;;;;;5078198;28;20052;-73
2023/05/06 06:58:56;;;;;;;5.55;4.88;;;17.90;96.70;;;;;;5089310;28;20070;-74
2023/05/06 07:01:25;;;;;;;5.95;4.88;;;18.00;96.70;;;;;;5095975;28;20123;-73
2023/05/06 07:03:55;;;;;;;13.07;11.30;;;18.20;96.70;;;;;;5094756;28;20042;-74
2023/05/06 07:06:23;;;;;;;11.32;10.13;;;18.30;96.70;;;;;;5075621;28;20505;-74
2023/05/06 07:08:51;;;;;;;7.82;7.03;;;18.30;96.70;;;;;;5096192;28;20032;-74
2023/05/06 07:11:20;;;;;;;6.20;5.60;;;18.40;96.70;;;;;;5093236;28;20090;-74
2023/05/06 07:13:48;;;;;;;6.00;4.85;;;18.50;96.70;;;;;;5091249;28;20135;-74
2023/05/06 07:16:17;;;;;;;6.90;4.60;;;18.50;96.70;;;;;;5099869;28;20154;-74
2023/05/06 07:18:45;;;;;;;6.25;5.20;;;18.50;96.70;;;;;;5095009;28;20035;-75
2023/05/06 07:21:16;;;;;;;6.07;5.45;;;18.40;96.70;;;;;;5092675;28;20040;-76
2023/05/06 07:23:45;;;;;;;7.15;4.78;;;18.40;96.70;;;;;;5082839;28;20063;-74
2023/05/06 07:26:13;;;;;;;5.53;4.85;;;18.60;96.70;;;;;;5098857;28;20047;-73
2023/05/06 07:28:42;;;;;;;5.25;4.68;;;18.60;96.70;;;;;;5074329;28;20048;-74
2023/05/06 07:31:10;;;;;;;5.72;4.78;;;18.60;96.70;;;;;;5096546;28;20047;-74
2023/05/06 07:33:39;;;;;;;5.85;5.25;;;18.60;96.70;;;;;;5090224;28;20094;-74
2023/05/06 07:36:07;;;;;;;5.68;4.97;;;18.60;96.70;;;;;;5091544;28;20520;-74
2023/05/06 07:38:37;;;;;;;6.75;4.80;;;18.70;96.70;;;;;;5090108;28;20101;-74
2023/05/06 07:41:06;;;;;;;4.82;4.43;;;18.70;96.70;;;;;;5093553;28;20032;-74
2023/05/06 07:43:35;;;;;;;5.45;4.93;;;18.80;96.70;;;;;;5097040;28;20044;-74
2023/05/06 07:46:03;;;;;;;6.07;4.88;;;18.80;96.70;;;;;;5093321;28;20150;-75
2023/05/06 07:48:32;;;;;;;8.35;4.95;;;18.90;96.70;;;;;;5093517;28;20763;-74
2023/05/06 07:51:02;;;;;;;5.18;4.68;;;18.90;96.70;;;;;;5095035;28;20117;-74
2023/05/06 07:53:30;;;;;;;5.93;5.20;;;18.90;96.70;;;;;;5096339;28;20180;-73
2023/05/06 07:56:01;;;;;;;5.53;4.97;;;18.90;96.70;;;;;;5098986;28;20420;-74
2023/05/06 07:58:30;;;;;;;4.95;4.45;;;18.80;96.70;;;;;;5097259;28;20644;-74
2023/05/06 08:00:59;;;;;;;6.97;5.93;;;18.80;96.70;;;;;;5094327;28;20043;-74
2023/05/06 08:03:27;;;;;;;5.47;4.70;;;18.80;96.70;;;;;;5094934;28;20061;-74
2023/05/06 08:05:56;;;;;;;5.97;4.95;;;18.80;96.70;;;;;;5102127;28;20039;-74
2023/05/06 08:08:27;;;;;;;6.70;5.47;;;18.90;96.70;;;;;;5086486;28;20602;-73
2023/05/06 08:10:56;;;;;;;7.43;5.25;;;19.00;96.70;;;;;;5105131;28;20142;-73
2023/05/06 08:13:27;;;;;;;6.93;4.55;;;19.00;96.70;;;;;;5106251;28;20798;-74
2023/05/06 08:15:55;;;;;;;4.95;4.32;;;19.00;96.70;;;;;;5123716;27;20051;-75
2023/05/06 08:18:24;;;;;;;7.78;4.15;;;19.10;96.70;;;;;;5107477;27;20453;-74
2023/05/06 08:20:52;;;;;;;5.90;4.10;;;19.10;96.70;;;;;;5110140;27;20035;-74
2023/05/06 08:23:21;;;;;;;5.15;3.83;;;19.20;96.70;;;;;;5116179;27;20043;-74
2023/05/06 08:25:50;;;;;;;4.85;4.35;;;19.20;96.70;;;;;;5100140;27;20078;-73
2023/05/06 08:28:19;;;;;;;7.38;4.78;;;19.20;96.70;;;;;;5126144;27;20551;-77
2023/05/06 08:30:52;;;;;;;5.10;4.60;;;19.10;96.70;;;;;;5101920;27;20142;-75
2023/05/06 08:33:20;;;;;;;7.50;5.45;;;19.10;96.70;;;;;;5093997;28;20036;-75
2023/05/06 08:35:51;;;;;;;5.13;4.20;;;19.20;96.70;;;;;;5114184;27;20039;-75
2023/05/06 08:38:19;;;;;;;4.47;3.90;;;19.30;96.70;;;;;;5121952;27;20048;-75
2023/05/06 08:40:49;;;;;;;4.75;3.67;;;19.50;96.70;;;;;;5109031;27;20058;-76
2023/05/06 08:43:19;;;;;;;6.13;3.83;;;19.60;96.70;;;;;;5098977;27;20079;-75
2023/05/06 08:45:49;;;;;;;6.95;3.95;;;19.70;96.70;;;;;;5101642;27;20450;-75
2023/05/06 08:48:20;;;;;;;6.13;4.15;;;19.70;96.70;;;;;;5109578;27;20412;-76
2023/05/06 08:50:51;;;;;;;5.15;3.70;;;19.70;96.70;;;;;;5098756;27;20044;-77
2023/05/06 08:53:22;;;;;;;5.68;3.55;;;19.80;96.70;;;;;;5100712;27;20074;-76
2023/05/06 08:55:56;;;;;;;4.45;3.92;;;19.90;96.70;;;;;;5103374;27;20039;-75
2023/05/06 08:58:33;;;;;;;3.83;3.50;;;19.90;96.70;;;;;;5111900;27;20083;-75
2023/05/06 09:01:10;;;;;;;5.25;3.97;;;19.90;96.70;;;;;;5094434;28;20048;-75
2023/05/06 09:03:46;;;;;;;4.15;3.75;;;20.00;96.70;;;;;;5094879;28;20051;-78
2023/05/06 09:06:20;;;;;;;7.50;4.03;;;20.10;96.70;;;;;;5096170;27;20058;-76
2023/05/06 09:08:57;;;;;;;4.72;4.32;;;20.20;96.70;;;;;;5117455;27;20247;-76
2023/05/06 09:11:32;;;;;;;8.18;4.20;;;20.20;96.70;;;;;;5114658;27;20043;-77
2023/05/06 09:14:09;;;;;;;;;;;20.30;96.70;;;;;;5073393;28;20059;-77
2023/05/06 09:16:46;;;;;;;8.48;4.10;;;20.30;96.70;;;;;;5077021;28;19924;-76
2023/05/06 09:19:25;;;;;;;6.03;3.42;;;20.40;96.70;;;;;;5081416;28;20050;-76
2023/05/06 09:22:03;;;;;;;4.38;3.40;;;20.30;96.70;;;;;;5069527;28;20506;-76
2023/05/06 09:24:39;;;;;;;4.38;3.80;;;20.30;96.70;;;;;;5079211;28;20066;-76
2023/05/06 09:27:18;;;;;;;4.78;3.10;;;20.40;96.70;;;;;;5077575;28;20062;-77
2023/05/06 09:30:02;;;;;;;3.92;3.33;;;20.60;96.70;;;;;;5072941;28;20443;-76
2023/05/06 09:32:35;;;;;;;5.07;2.92;;;20.70;96.70;;;;;;5080475;28;20040;-76
2023/05/06 09:35:11;;;;;;;8.43;3.70;;;20.80;96.70;;;;;;5077319;28;20142;-76
2023/05/06 09:37:40;;;;;;;4.57;3.15;;;20.90;96.70;;;;;;5081424;28;20052;-77
2023/05/06 09:40:10;;;;;;;7.43;3.92;;;21.00;96.70;;;;;;5080363;28;20135;-76
2023/05/06 09:42:42;;;;;;;4.95;3.33;;;21.10;96.70;;;;;;5077995;28;20044;-76
2023/05/06 09:45:14;;;;;;;3.15;2.85;;;21.20;96.70;;;;;;5076980;28;20044;-77
2023/05/06 09:47:43;;;;;;;6.03;3.80;;;21.20;96.70;;;;;;5077503;28;20039;-77
2023/05/06 09:50:14;;;;;;;5.10;3.15;;;21.10;96.70;;;;;;5096661;28;20059;-77
2023/05/06 09:52:47;;;;;;;4.30;3.15;;;21.20;96.70;;;;;;5074335;28;20043;-76
2023/05/06 09:55:20;;;;;;;5.25;3.70;;;21.30;96.70;;;;;;5075897;28;20055;-77
2023/05/06 09:57:53;;;;;;;5.22;3.85;;;21.40;96.70;;;;;;5083454;28;20043;-77
2023/05/06 10:00:28;;;;;;;4.45;3.47;;;21.60;96.70;;;;;;5078502;28;20040;-76
2023/05/06 10:03:01;;;;;;;6.90;3.90;;;21.60;96.70;;;;;;5074178;28;20148;-74
2023/05/06 10:05:32;;;;;;;4.28;3.22;;;21.80;96.70;;;;;;5081511;28;20044;-75
2023/05/06 10:08:03;;;;;;;4.22;3.58;;;21.80;96.70;;;;;;5080523;28;20066;-75
2023/05/06 10:10:33;;;;;;;4.25;3.55;;;22.00;96.70;;;;;;5066458;28;20059;-75
2023/05/06 10:13:04;;;;;;;3.72;3.33;;;22.10;96.70;;;;;;5079067;28;20040;-74
2023/05/06 10:15:38;;;;;;;5.05;3.20;;;22.30;96.70;;;;;;5088378;28;20109;-75
2023/05/06 10:18:14;;;;;;;6.00;3.20;;;22.40;96.70;;;;;;5091212;28;20138;-75
2023/05/06 10:20:45;;;;;;;4.47;3.15;;;22.50;96.70;;;;;;5091514;28;20036;-75
2023/05/06 10:23:23;;;;;;;4.60;3.00;;;22.60;96.70;;;;;;5100837;28;20126;-74
2023/05/06 10:25:55;;;;;;;4.45;3.13;;;22.60;96.70;;;;;;5077080;28;20412;-75
2023/05/06 10:28:24;;;;;;;7.25;3.35;;;22.70;96.70;;;;;;5102395;28;20047;-75
2023/05/06 10:30:58;;;;;;;3.85;2.67;;;22.70;96.70;;;;;;5098447;28;20067;-74
2023/05/06 10:33:28;;;;;;;6.22;3.35;;;22.80;96.70;;;;;;5091741;28;20810;-75
2023/05/06 10:36:15;;;;;;;3.90;3.47;;;23.00;96.70;;;;;;5084398;28;20430;-75
2023/05/06 10:38:46;;;;;;;5.15;3.17;;;23.00;96.70;;;;;;5094370;28;20040;-76
2023/05/06 10:41:15;;;;;;;4.43;2.88;;;23.10;96.70;;;;;;5099408;28;20067;-75
2023/05/06 10:43:44;;;;;;;4.90;3.22;;;23.20;96.70;;;;;;5103050;28;20035;-75
2023/05/06 10:46:13;;;;;;;4.28;3.22;;;23.30;96.70;;;;;;5098945;28;20142;-75
2023/05/06 10:49:15;;;;;;;4.10;3.00;;;23.30;96.70;;;;;;5099939;28;20051;-75
2023/05/06 10:52:07;;;;;;;5.25;3.30;;;23.40;96.70;;;;;;5091503;28;20039;-75
2023/05/06 10:54:48;;;;;;;7.22;3.10;;;23.50;96.70;;;;;;5095873;28;20100;-77
2023/05/06 10:57:20;;;;;;;3.15;2.65;;;23.70;96.70;;;;;;5114105;27;20047;-75
2023/05/06 10:59:49;;;;;;;2.83;2.20;;;23.90;96.70;;;;;;5092758;28;20078;-75
2023/05/06 11:02:18;;;;;;;2.70;2.00;;;23.90;96.70;;;;;;5091703;28;20974;-75
2023/05/06 11:04:58;;;;;;;3.95;2.05;;;24.10;96.70;;;;;;5095926;28;20063;-74
2023/05/06 11:07:28;;;;;;;1.92;1.55;;;24.20;96.70;;;;;;5090444;28;20052;-74
2023/05/06 11:09:58;;;;;;;2.55;1.33;;;24.40;96.70;;;;;;5091100;28;20164;-76
2023/05/06 11:12:47;;;;;;;2.95;1.60;;;24.40;96.70;;;;;;5084953;28;20058;-74
2023/05/06 11:15:24;;;;;;;4.05;1.45;;;24.50;96.70;;;;;;5107435;27;20523;-75
2023/05/06 11:17:54;;;;;;;1.42;0.90;;;24.70;96.70;;;;;;5117426;27;20043;-75
2023/05/06 11:20:24;;;;;;;2.72;1.05;;;24.70;96.70;;;;;;5084614;28;20053;-76
2023/05/06 11:22:54;;;;;;;2.30;1.27;;;24.70;96.70;;;;;;5097862;27;20055;-76
2023/05/06 11:25:46;;;;;;;1.80;1.23;;;24.70;96.70;;;;;;5105295;27;20039;-76
2023/05/06 11:28:15;;;;;;;2.05;0.90;;;24.70;96.70;;;;;;5094023;28;20067;-77
2023/05/06 11:30:52;;;;;;;1.27;1.17;;;24.90;96.70;;;;;;5099946;28;20401;-77
2023/05/06 11:33:23;;;;;;;2.28;0.82;;;25.00;96.70;;;;;;5091931;28;20056;-76
2023/05/06 11:35:52;;;;;;;4.72;1.17;;;25.00;96.70;;;;;;5094965;27;20071;-76
2023/05/06 11:38:22;;;;;;;2.08;1.02;;;25.20;96.70;;;;;;5103625;28;20048;-76
2023/05/06 11:40:51;;;;;;;1.65;1.27;;;25.20;96.70;;;;;;5093689;27;20050;-78
2023/05/06 11:43:19;;;;;;;1.38;1.00;;;25.10;96.70;;;;;;5109645;28;20035;-77
2023/05/06 11:45:49;;;;;;;1.10;0.80;;;25.10;96.70;;;;;;5075642;27;20071;-77
2023/05/06 11:48:18;;;;;;;1.17;1.00;;;25.20;96.70;;;;;;5121827;28;20043;-79
2023/05/06 11:50:47;;;;;;;1.65;0.80;;;25.30;96.70;;;;;;5113819;28;20043;-76
2023/05/06 11:53:18;;;;;;;2.38;1.10;;;25.30;96.70;;;;;;5119633;28;20520;-76
2023/05/06 11:55:48;;;;;;;1.08;0.93;;;25.60;96.70;;;;;;5092831;28;20369;-80
2023/05/06 11:58:19;;;;;;;2.38;1.20;;;25.60;96.70;;;;;;5101256;28;20059;-76
2023/05/06 12:00:50;;;;;;;2.25;1.38;;;25.50;96.70;;;;;;5088336;28;20558;-77
2023/05/06 12:03:19;;;;;;;1.00;0.60;;;25.60;96.70;;;;;;5093020;28;20035;-76
2023/05/06 12:05:48;;;;;;;2.25;0.90;;;25.50;96.70;;;;;;5116735;28;20130;-76
2023/05/06 12:08:19;;;;;;;2.10;1.10;;;25.50;96.70;;;;;;5093584;28;20578;-76
2023/05/06 12:11:00;;;;;;;1.50;1.00;;;25.60;96.70;;;;;;5094612;28;20043;-77
2023/05/06 12:13:29;;;;;;;1.38;0.90;;;25.70;96.70;;;;;;5094871;28;20097;-77
2023/05/06 12:15:58;;;;;;;1.00;0.63;;;25.90;96.70;;;;;;5114292;27;20043;-77
2023/05/06 12:18:28;;;;;;;0.75;0.65;;;25.90;96.70;;;;;;5114736;28;20040;-76
2023/05/06 12:20:56;;;;;;;1.35;0.52;;;26.00;96.70;;;;;;5096452;28;20039;-77
2023/05/06 12:23:26;;;;;;;1.38;0.60;;;26.00;96.70;;;;;;5094833;28;20036;-76
2023/05/06 12:26:04;;;;;;;1.65;0.57;;;26.10;96.70;;;;;;5096485;28;20073;-76
2023/05/06 12:28:35;;;;;;;2.22;0.57;;;26.10;96.70;;;;;;5096180;28;20057;-77
2023/05/06 12:31:18;;;;;;;1.50;0.32;;;26.20;96.70;;;;;;5106138;28;20043;-76
2023/05/06 12:33:49;;;;;;;0.63;0.43;;;26.20;96.70;;;;;;5093470;28;20443;-74
2023/05/06 12:36:17;;;;;;;1.42;0.35;;;26.10;96.70;;;;;;5085493;28;20111;-75
2023/05/06 12:38:53;;;;;;;0.28;0.28;;;26.10;96.70;;;;;;5121912;27;20039;-75
2023/05/06 12:41:35;;;;;;;0.80;0.40;;;26.20;96.70;;;;;;5104953;27;20080;-73
2023/05/06 12:44:28;;;;;;;0.50;0.30;;;26.20;96.70;;;;;;5105691;27;20137;-74
2023/05/06 12:46:56;;;;;;;2.15;0.40;;;26.20;96.70;;;;;;5103067;27;20046;-76
2023/05/06 12:49:24;;;;;;;1.30;0.35;;;26.20;96.70;;;;;;5102586;27;20052;-77
2023/05/06 12:52:06;;;;;;;1.65;0.40;;;26.20;96.70;;;;;;5103407;27;20094;-75
2023/05/06 12:54:34;;;;;;;0.40;0.30;;;26.10;96.70;;;;;;5117281;27;20054;-77
2023/05/06 12:57:05;;;;;;;1.15;0.30;;;26.20;96.70;;;;;;5097859;27;20109;-76
2023/05/06 12:59:35;;;;;;;0.47;0.28;;;26.20;96.70;;;;;;5098407;27;20063;-76
2023/05/06 13:02:03;;;;;;;0.50;0.40;;;26.20;96.70;;;;;;5114131;27;20078;-76
2023/05/06 13:04:32;;;;;;;1.88;0.30;;;26.20;96.70;;;;;;5092654;27;20042;-78
2023/05/06 13:07:00;;;;;;;2.03;0.45;;;26.10;96.70;;;;;;5112478;27;20187;-75
2023/05/06 13:09:28;;;;;;;2.30;0.40;;;26.20;96.70;;;;;;5121122;27;20431;-76
2023/05/06 13:11:58;;;;;;;1.55;0.30;;;26.30;96.70;;;;;;5096123;28;20089;-76
2023/05/06 13:14:28;;;;;;;0.55;0.30;;;26.30;96.70;;;;;;5091294;28;20097;-78
2023/05/06 13:16:59;;;;;;;2.92;0.57;;;26.40;96.70;;;;;;5096915;28;20054;-78
2023/05/06 13:19:28;;;;;;;0.63;0.30;;;26.60;96.70;;;;;;5078207;28;20048;-78
2023/05/06 13:22:00;;;;;;;0.35;0.20;;;26.80;96.70;;;;;;5089425;28;20049;-81
2023/05/06 13:24:28;;;;;;;0.63;0.30;;;26.90;96.70;;;;;;5097966;28;20039;-80
2023/05/06 13:26:59;;;;;;;0.28;0.20;;;27.00;96.70;;;;;;5098224;28;20075;-79
2023/05/06 13:29:30;;;;;;;1.17;0.40;;;27.30;96.70;;;;;;5086003;28;20605;-81
2023/05/06 13:31:59;;;;;;;0.65;0.30;;;27.50;96.70;;;;;;5084306;28;21149;-77
2023/05/06 13:34:28;;;;;;;0.77;0.32;;;27.60;96.70;;;;;;5096560;28;20113;-78
2023/05/06 13:36:57;;;;;;;0.73;0.30;;;27.60;96.70;;;;;;5101575;28;20040;-78
2023/05/06 13:39:25;;;;;;;1.98;0.52;;;27.70;96.70;;;;;;5094351;28;20544;-79
2023/05/06 13:41:53;;;;;;;0.47;0.30;;;27.70;96.70;;;;;;5064674;28;20084;-82
2023/05/06 13:44:23;;;;;;;5.85;1.30;;;27.70;96.70;;;;;;5094580;28;20044;-79
2023/05/06 13:46:52;;;;;;;6.75;1.15;;;27.70;95.40;;;;;;5088186;28;20047;-79
2023/05/06 13:49:21;;;;;;;2.10;0.60;;;27.70;96.70;;;;;;5078073;28;20035;-76
2023/05/06 13:51:49;;;;;;;1.73;0.40;;;27.80;96.70;;;;;;5097742;28;20126;-78
2023/05/06 13:54:17;;;;;;;2.85;0.60;;;27.90;93.90;;;;;;5099018;28;20859;-76
2023/05/06 13:56:45;;;;;;;1.45;0.30;;;28.00;93.40;;;;;;5077679;28;20079;-74
2023/05/06 13:59:13;;;;;;;1.80;0.40;;;28.10;94.50;;;;;;5097671;28;20122;-73
2023/05/06 14:01:42;;;;;;;1.35;0.38;;;28.40;94.70;;;;;;5101366;28;20045;-73
2023/05/06 14:04:11;;;;;;;2.95;0.50;;;28.50;94.00;;;;;;5090777;28;20092;-74
2023/05/06 14:06:40;;;;;;;3.83;0.40;;;28.40;94.80;;;;;;5081203;28;20595;-73
2023/05/06 14:09:09;;;;;;;1.25;0.30;;;28.40;96.20;;;;;;5101280;28;20162;-74
2023/05/06 14:11:37;;;;;;;2.85;0.40;;;28.60;96.70;;;;;;5090777;28;20067;-73
2023/05/06 14:14:05;;;;;;;1.02;0.38;;;28.80;96.70;;;;;;5089488;28;20048;-74
2023/05/06 14:16:33;;;;;;;1.77;0.30;;;29.10;96.00;;;;;;5089816;28;20054;-73
2023/05/06 14:19:01;;;;;;;0.63;0.30;;;29.00;94.80;;;;;;5093010;28;20101;-72
2023/05/06 14:21:32;;;;;;;1.85;0.47;;;29.00;93.80;;;;;;5087350;28;20101;-73
2023/05/06 14:24:00;;;;;;;1.25;0.30;;;28.90;93.40;;;;;;5090288;28;20055;-73
2023/05/06 14:26:29;;;;;;;1.50;0.30;;;29.00;93.60;;;;;;5089617;28;20609;-73
2023/05/06 14:29:00;;;;;;;1.42;0.30;;;29.10;91.30;;;;;;5092822;28;20059;-72
2023/05/06 14:31:29;;;;;;;1.90;0.30;;;29.10;89.20;;;;;;5091395;28;20058;-72
2023/05/06 14:33:57;;;;;;;1.35;0.32;;;29.00;89.80;;;;;;5091905;28;20055;-73
2023/05/06 14:36:25;;;;;;;2.50;0.30;;;29.10;89.40;;;;;;5091480;28;20054;-73
2023/05/06 14:38:55;;;;;;;0.43;0.38;;;29.40;90.50;;;;;;5089956;28;20635;-74
2023/05/06 14:41:23;;;;;;;1.77;0.40;;;29.60;89.70;;;;;;5092175;28;20082;-73
2023/05/06 14:43:54;;;;;;;0.63;0.35;;;29.40;91.60;;;;;;5094129;28;20047;-72
2023/05/06 14:46:26;;;;;;;1.13;0.30;;;29.10;93.60;;;;;;5095278;28;20742;-73
2023/05/06 14:48:57;;;;;;;1.50;0.40;;;29.40;93.30;;;;;;5101236;28;20039;-73
2023/05/06 14:51:28;;;;;;;0.68;0.50;;;29.40;94.40;;;;;;5101088;28;20394;-73
2023/05/06 14:53:59;;;;;;;2.95;0.50;;;29.70;95.40;;;;;;5102220;28;20118;-73